sensor_id;sensor_type;location;lat;lon;timestamp;P1;durP1;ratioP1;P2;durP2;ratioP2
40591;SDS011;26301;42.832;23.918;2022-10-24T00:01:19;2.88;;;1.60;;
40591;SDS011;26301;42.832;23.918;2022-10-24T00:03:46;2.42;;;1.60;;
40591;SDS011;26301;42.832;23.918;2022-10-24T00:06:13;2.70;;;1.80;;
40591;SDS011;26301;42.832;23.918;2022-10-24T00:08:41;4.40;;;1.83;;
40591;SDS011;26301;42.832;23.918;2022-10-24T00:11:08;3.83;;;1.58;;
40591;SDS011;26301;42.832;23.918;2022-10-24T00:13:36;4.68;;;1.75;;
40591;SDS011;26301;42.832;23.918;2022-10-24T00:16:02;3.55;;;2.10;;
40591;SDS011;26301;42.832;23.918;2022-10-24T00:18:28;3.03;;;1.63;;
40591;SDS011;26301;42.832;23.918;2022-10-24T00:20:53;2.00;;;1.40;;
40591;SDS011;26301;42.832;23.918;2022-10-24T00:23:19;2.63;;;1.45;;
40591;SDS011;26301;42.832;23.918;2022-10-24T00:25:44;4.75;;;2.10;;
40591;SDS011;26301;42.832;23.918;2022-10-24T00:28:11;3.70;;;1.73;;
40591;SDS011;26301;42.832;23.918;2022-10-24T00:30:37;5.13;;;2.00;;
40591;SDS011;26301;42.832;23.918;2022-10-24T00:33:02;4.03;;;1.40;;
40591;SDS011;26301;42.832;23.918;2022-10-24T00:35:28;2.85;;;1.77;;
40591;SDS011;26301;42.832;23.918;2022-10-24T00:37:54;2.67;;;1.35;;
40591;SDS011;26301;42.832;23.918;2022-10-24T00:40:20;4.75;;;1.60;;
40591;SDS011;26301;42.832;23.918;2022-10-24T00:42:46;7.03;;;1.85;;
40591;SDS011;26301;42.832;23.918;2022-10-24T00:48:33;3.08;;;1.70;;
40591;SDS011;26301;42.832;23.918;2022-10-24T00:51:14;3.42;;;1.75;;
40591;SDS011;26301;42.832;23.918;2022-10-24T00:53:42;4.07;;;1.92;;
40591;SDS011;26301;42.832;23.918;2022-10-24T00:56:12;3.03;;;1.73;;
40591;SDS011;26301;42.832;23.918;2022-10-24T00:58:42;5.30;;;2.10;;
40591;SDS011;26301;42.832;23.918;2022-10-24T01:01:09;3.60;;;1.77;;
40591;SDS011;26301;42.832;23.918;2022-10-24T01:03:36;4.15;;;1.92;;
40591;SDS011;26301;42.832;23.918;2022-10-24T01:06:13;5.25;;;2.25;;
40591;SDS011;26301;42.832;23.918;2022-10-24T01:14:25;4.25;;;1.83;;
40591;SDS011;26301;42.832;23.918;2022-10-24T01:22:42;5.88;;;2.22;;
40591;SDS011;26301;42.832;23.918;2022-10-24T01:28:28;6.28;;;2.35;;
40591;SDS011;26301;42.832;23.918;2022-10-24T01:31:03;6.22;;;2.65;;
40591;SDS011;26301;42.832;23.918;2022-10-24T01:33:37;4.13;;;2.30;;
40591;SDS011;26301;42.832;23.918;2022-10-24T01:36:09;3.15;;;2.17;;
40591;SDS011;26301;42.832;23.918;2022-10-24T01:38:41;3.03;;;1.85;;
40591;SDS011;26301;42.832;23.918;2022-10-24T01:41:18;3.00;;;2.00;;
40591;SDS011;26301;42.832;23.918;2022-10-24T01:44:06;3.67;;;2.17;;
40591;SDS011;26301;42.832;23.918;2022-10-24T01:46:41;4.30;;;2.30;;
40591;SDS011;26301;42.832;23.918;2022-10-24T01:49:14;6.05;;;2.10;;
40591;SDS011;26301;42.832;23.918;2022-10-24T01:51:42;4.22;;;2.33;;
40591;SDS011;26301;42.832;23.918;2022-10-24T01:54:11;5.50;;;2.33;;
40591;SDS011;26301;42.832;23.918;2022-10-24T01:56:37;5.38;;;2.40;;
40591;SDS011;26301;42.832;23.918;2022-10-24T02:04:20;5.22;;;2.13;;
40591;SDS011;26301;42.832;23.918;2022-10-24T02:06:47;4.20;;;2.42;;
40591;SDS011;26301;42.832;23.918;2022-10-24T02:09:17;5.85;;;2.35;;
40591;SDS011;26301;42.832;23.918;2022-10-24T02:11:44;4.70;;;2.80;;
40591;SDS011;26301;42.832;23.918;2022-10-24T02:16:42;5.72;;;2.70;;
40591;SDS011;26301;42.832;23.918;2022-10-24T02:19:09;7.35;;;2.30;;
40591;SDS011;26301;42.832;23.918;2022-10-24T02:21:46;3.85;;;2.00;;
40591;SDS011;26301;42.832;23.918;2022-10-24T02:24:31;8.27;;;2.72;;
40591;SDS011;26301;42.832;23.918;2022-10-24T02:27:04;7.50;;;3.00;;
40591;SDS011;26301;42.832;23.918;2022-10-24T02:35:10;4.72;;;2.70;;
40591;SDS011;26301;42.832;23.918;2022-10-24T02:37:39;6.43;;;2.63;;
40591;SDS011;26301;42.832;23.918;2022-10-24T02:40:11;10.35;;;3.13;;
40591;SDS011;26301;42.832;23.918;2022-10-24T02:42:39;4.20;;;2.72;;
40591;SDS011;26301;42.832;23.918;2022-10-24T02:45:09;5.25;;;2.80;;
40591;SDS011;26301;42.832;23.918;2022-10-24T02:47:37;4.28;;;2.40;;
40591;SDS011;26301;42.832;23.918;2022-10-24T02:50:05;3.97;;;2.80;;
40591;SDS011;26301;42.832;23.918;2022-10-24T02:52:31;4.80;;;3.20;;
40591;SDS011;26301;42.832;23.918;2022-10-24T02:54:57;4.53;;;2.65;;
40591;SDS011;26301;42.832;23.918;2022-10-24T02:57:23;4.95;;;2.70;;
40591;SDS011;26301;42.832;23.918;2022-10-24T02:59:51;4.25;;;2.53;;
40591;SDS011;26301;42.832;23.918;2022-10-24T03:02:17;5.03;;;2.92;;
40591;SDS011;26301;42.832;23.918;2022-10-24T03:04:43;7.60;;;3.65;;
40591;SDS011;26301;42.832;23.918;2022-10-24T03:07:09;3.65;;;2.28;;
40591;SDS011;26301;42.832;23.918;2022-10-24T03:09:35;4.68;;;2.33;;
40591;SDS011;26301;42.832;23.918;2022-10-24T03:12:01;4.65;;;2.22;;
40591;SDS011;26301;42.832;23.918;2022-10-24T03:14:27;6.80;;;3.13;;
40591;SDS011;26301;42.832;23.918;2022-10-24T03:16:53;4.68;;;2.97;;
40591;SDS011;26301;42.832;23.918;2022-10-24T03:19:18;4.90;;;3.10;;
40591;SDS011;26301;42.832;23.918;2022-10-24T03:21:44;5.50;;;3.25;;
40591;SDS011;26301;42.832;23.918;2022-10-24T03:24:10;4.80;;;3.13;;
40591;SDS011;26301;42.832;23.918;2022-10-24T03:26:36;6.72;;;3.00;;
40591;SDS011;26301;42.832;23.918;2022-10-24T03:29:02;6.55;;;2.65;;
40591;SDS011;26301;42.832;23.918;2022-10-24T03:31:27;6.03;;;3.28;;
40591;SDS011;26301;42.832;23.918;2022-10-24T03:33:54;6.00;;;3.53;;
40591;SDS011;26301;42.832;23.918;2022-10-24T03:36:20;7.03;;;3.97;;
40591;SDS011;26301;42.832;23.918;2022-10-24T03:38:46;6.70;;;3.75;;
40591;SDS011;26301;42.832;23.918;2022-10-24T03:41:12;7.28;;;4.20;;
40591;SDS011;26301;42.832;23.918;2022-10-24T03:43:38;7.65;;;3.80;;
40591;SDS011;26301;42.832;23.918;2022-10-24T03:46:03;6.40;;;3.90;;
40591;SDS011;26301;42.832;23.918;2022-10-24T03:48:29;8.30;;;3.92;;
40591;SDS011;26301;42.832;23.918;2022-10-24T03:50:55;8.68;;;3.55;;
40591;SDS011;26301;42.832;23.918;2022-10-24T03:53:21;9.43;;;3.90;;
40591;SDS011;26301;42.832;23.918;2022-10-24T03:55:46;6.60;;;3.85;;
40591;SDS011;26301;42.832;23.918;2022-10-24T03:58:12;8.00;;;3.60;;
40591;SDS011;26301;42.832;23.918;2022-10-24T04:00:39;8.88;;;3.88;;
40591;SDS011;26301;42.832;23.918;2022-10-24T04:03:05;8.05;;;3.67;;
40591;SDS011;26301;42.832;23.918;2022-10-24T04:05:32;5.50;;;4.43;;
40591;SDS011;26301;42.832;23.918;2022-10-24T04:07:58;8.05;;;4.13;;
40591;SDS011;26301;42.832;23.918;2022-10-24T04:10:23;6.88;;;4.07;;
40591;SDS011;26301;42.832;23.918;2022-10-24T04:12:49;9.98;;;3.85;;
40591;SDS011;26301;42.832;23.918;2022-10-24T04:15:15;7.28;;;3.83;;
40591;SDS011;26301;42.832;23.918;2022-10-24T04:17:41;6.85;;;4.03;;
40591;SDS011;26301;42.832;23.918;2022-10-24T04:20:06;6.30;;;3.92;;
40591;SDS011;26301;42.832;23.918;2022-10-24T04:22:33;10.70;;;4.38;;
40591;SDS011;26301;42.832;23.918;2022-10-24T04:24:59;11.05;;;4.50;;
40591;SDS011;26301;42.832;23.918;2022-10-24T04:27:25;10.43;;;5.15;;
40591;SDS011;26301;42.832;23.918;2022-10-24T04:29:50;10.75;;;4.30;;
40591;SDS011;26301;42.832;23.918;2022-10-24T04:32:16;7.65;;;4.35;;
40591;SDS011;26301;42.832;23.918;2022-10-24T04:34:42;10.07;;;4.85;;
40591;SDS011;26301;42.832;23.918;2022-10-24T04:37:08;6.07;;;3.85;;
40591;SDS011;26301;42.832;23.918;2022-10-24T04:39:33;8.73;;;3.72;;
40591;SDS011;26301;42.832;23.918;2022-10-24T04:41:59;9.10;;;4.53;;
40591;SDS011;26301;42.832;23.918;2022-10-24T04:44:24;6.45;;;4.05;;
40591;SDS011;26301;42.832;23.918;2022-10-24T04:46:50;7.10;;;3.70;;
40591;SDS011;26301;42.832;23.918;2022-10-24T04:49:16;11.27;;;4.15;;
40591;SDS011;26301;42.832;23.918;2022-10-24T04:51:42;7.57;;;4.05;;
40591;SDS011;26301;42.832;23.918;2022-10-24T04:54:07;6.60;;;3.42;;
40591;SDS011;26301;42.832;23.918;2022-10-24T04:56:33;7.28;;;4.38;;
40591;SDS011;26301;42.832;23.918;2022-10-24T04:58:59;7.05;;;3.70;;
40591;SDS011;26301;42.832;23.918;2022-10-24T05:01:25;7.32;;;4.13;;
40591;SDS011;26301;42.832;23.918;2022-10-24T05:03:51;8.77;;;4.00;;
40591;SDS011;26301;42.832;23.918;2022-10-24T05:06:17;9.65;;;3.55;;
40591;SDS011;26301;42.832;23.918;2022-10-24T05:08:43;8.77;;;3.92;;
40591;SDS011;26301;42.832;23.918;2022-10-24T05:11:09;6.50;;;3.67;;
40591;SDS011;26301;42.832;23.918;2022-10-24T05:13:36;9.75;;;4.43;;
40591;SDS011;26301;42.832;23.918;2022-10-24T05:16:03;7.25;;;3.78;;
40591;SDS011;26301;42.832;23.918;2022-10-24T05:18:29;7.28;;;4.07;;
40591;SDS011;26301;42.832;23.918;2022-10-24T05:20:55;8.75;;;4.38;;
40591;SDS011;26301;42.832;23.918;2022-10-24T05:23:21;6.63;;;3.63;;
40591;SDS011;26301;42.832;23.918;2022-10-24T05:25:47;8.38;;;4.38;;
40591;SDS011;26301;42.832;23.918;2022-10-24T05:28:13;7.45;;;3.88;;
40591;SDS011;26301;42.832;23.918;2022-10-24T05:30:38;10.23;;;4.18;;
40591;SDS011;26301;42.832;23.918;2022-10-24T05:33:06;12.00;;;4.80;;
40591;SDS011;26301;42.832;23.918;2022-10-24T05:35:32;13.93;;;4.70;;
40591;SDS011;26301;42.832;23.918;2022-10-24T05:37:57;5.88;;;3.83;;
40591;SDS011;26301;42.832;23.918;2022-10-24T05:40:23;10.98;;;4.70;;
40591;SDS011;26301;42.832;23.918;2022-10-24T05:42:49;10.30;;;4.25;;
40591;SDS011;26301;42.832;23.918;2022-10-24T05:45:16;12.73;;;4.03;;
40591;SDS011;26301;42.832;23.918;2022-10-24T05:47:42;9.10;;;4.35;;
40591;SDS011;26301;42.832;23.918;2022-10-24T05:50:08;9.30;;;4.45;;
40591;SDS011;26301;42.832;23.918;2022-10-24T05:52:34;10.88;;;4.32;;
40591;SDS011;26301;42.832;23.918;2022-10-24T05:55:02;9.00;;;3.72;;
40591;SDS011;26301;42.832;23.918;2022-10-24T05:57:31;10.10;;;4.43;;
40591;SDS011;26301;42.832;23.918;2022-10-24T05:59:57;9.82;;;4.72;;
40591;SDS011;26301;42.832;23.918;2022-10-24T06:02:23;8.85;;;4.35;;
40591;SDS011;26301;42.832;23.918;2022-10-24T06:04:49;7.97;;;4.15;;
40591;SDS011;26301;42.832;23.918;2022-10-24T06:07:16;8.43;;;4.22;;
40591;SDS011;26301;42.832;23.918;2022-10-24T06:09:42;11.27;;;4.88;;
40591;SDS011;26301;42.832;23.918;2022-10-24T06:12:09;9.82;;;4.68;;
40591;SDS011;26301;42.832;23.918;2022-10-24T06:14:35;9.30;;;4.43;;
40591;SDS011;26301;42.832;23.918;2022-10-24T06:17:02;7.55;;;3.72;;
40591;SDS011;26301;42.832;23.918;2022-10-24T06:19:29;9.73;;;4.35;;
40591;SDS011;26301;42.832;23.918;2022-10-24T06:21:55;10.20;;;3.63;;
40591;SDS011;26301;42.832;23.918;2022-10-24T06:24:21;9.95;;;4.00;;
40591;SDS011;26301;42.832;23.918;2022-10-24T06:26:47;12.85;;;4.05;;
40591;SDS011;26301;42.832;23.918;2022-10-24T06:29:12;11.05;;;4.07;;
40591;SDS011;26301;42.832;23.918;2022-10-24T06:31:38;10.13;;;4.15;;
40591;SDS011;26301;42.832;23.918;2022-10-24T06:34:04;7.13;;;3.60;;
40591;SDS011;26301;42.832;23.918;2022-10-24T06:36:30;11.75;;;4.20;;
40591;SDS011;26301;42.832;23.918;2022-10-24T06:38:55;7.65;;;4.10;;
40591;SDS011;26301;42.832;23.918;2022-10-24T06:41:21;11.70;;;3.92;;
40591;SDS011;26301;42.832;23.918;2022-10-24T06:43:47;11.20;;;4.43;;
40591;SDS011;26301;42.832;23.918;2022-10-24T06:46:14;9.82;;;3.65;;
40591;SDS011;26301;42.832;23.918;2022-10-24T06:48:41;10.35;;;3.30;;
40591;SDS011;26301;42.832;23.918;2022-10-24T06:51:07;9.43;;;3.38;;
40591;SDS011;26301;42.832;23.918;2022-10-24T06:53:33;8.88;;;3.38;;
40591;SDS011;26301;42.832;23.918;2022-10-24T06:56:03;11.60;;;3.58;;
40591;SDS011;26301;42.832;23.918;2022-10-24T06:58:31;10.38;;;3.25;;
40591;SDS011;26301;42.832;23.918;2022-10-24T07:00:57;8.48;;;3.63;;
40591;SDS011;26301;42.832;23.918;2022-10-24T07:03:23;10.82;;;3.63;;
40591;SDS011;26301;42.832;23.918;2022-10-24T07:05:49;13.05;;;3.70;;
40591;SDS011;26301;42.832;23.918;2022-10-24T07:08:15;7.95;;;3.15;;
40591;SDS011;26301;42.832;23.918;2022-10-24T07:10:41;10.90;;;3.20;;
40591;SDS011;26301;42.832;23.918;2022-10-24T07:13:06;10.32;;;4.18;;
40591;SDS011;26301;42.832;23.918;2022-10-24T07:15:32;8.10;;;3.42;;
40591;SDS011;26301;42.832;23.918;2022-10-24T07:17:58;8.43;;;2.95;;
40591;SDS011;26301;42.832;23.918;2022-10-24T07:20:24;7.55;;;2.97;;
40591;SDS011;26301;42.832;23.918;2022-10-24T07:22:49;8.77;;;3.17;;
40591;SDS011;26301;42.832;23.918;2022-10-24T07:25:15;10.95;;;2.95;;
40591;SDS011;26301;42.832;23.918;2022-10-24T07:27:41;8.80;;;3.13;;
40591;SDS011;26301;42.832;23.918;2022-10-24T07:30:07;8.43;;;3.10;;
40591;SDS011;26301;42.832;23.918;2022-10-24T07:32:33;10.55;;;2.60;;
40591;SDS011;26301;42.832;23.918;2022-10-24T07:34:59;7.57;;;2.90;;
40591;SDS011;26301;42.832;23.918;2022-10-24T07:37:25;7.20;;;2.85;;
40591;SDS011;26301;42.832;23.918;2022-10-24T07:39:51;11.27;;;3.78;;
40591;SDS011;26301;42.832;23.918;2022-10-24T07:42:16;9.68;;;2.85;;
40591;SDS011;26301;42.832;23.918;2022-10-24T07:44:43;8.88;;;2.92;;
40591;SDS011;26301;42.832;23.918;2022-10-24T07:47:09;7.45;;;2.92;;
40591;SDS011;26301;42.832;23.918;2022-10-24T07:49:36;8.05;;;3.03;;
40591;SDS011;26301;42.832;23.918;2022-10-24T07:52:02;8.40;;;2.58;;
40591;SDS011;26301;42.832;23.918;2022-10-24T07:54:29;8.90;;;2.60;;
40591;SDS011;26301;42.832;23.918;2022-10-24T07:56:54;8.45;;;2.90;;
40591;SDS011;26301;42.832;23.918;2022-10-24T07:59:20;10.63;;;2.88;;
40591;SDS011;26301;42.832;23.918;2022-10-24T08:01:46;8.80;;;2.50;;
40591;SDS011;26301;42.832;23.918;2022-10-24T08:04:12;9.02;;;2.80;;
40591;SDS011;26301;42.832;23.918;2022-10-24T08:06:38;12.00;;;2.90;;
40591;SDS011;26301;42.832;23.918;2022-10-24T08:09:08;6.75;;;2.65;;
40591;SDS011;26301;42.832;23.918;2022-10-24T08:11:35;9.98;;;3.75;;
40591;SDS011;26301;42.832;23.918;2022-10-24T08:14:00;9.60;;;2.75;;
40591;SDS011;26301;42.832;23.918;2022-10-24T08:16:26;9.32;;;2.60;;
40591;SDS011;26301;42.832;23.918;2022-10-24T08:18:54;8.70;;;2.55;;
40591;SDS011;26301;42.832;23.918;2022-10-24T08:21:21;12.23;;;2.40;;
40591;SDS011;26301;42.832;23.918;2022-10-24T08:23:49;11.43;;;2.88;;
40591;SDS011;26301;42.832;23.918;2022-10-24T08:26:18;10.57;;;2.97;;
40591;SDS011;26301;42.832;23.918;2022-10-24T08:28:47;6.35;;;2.90;;
40591;SDS011;26301;42.832;23.918;2022-10-24T08:31:17;8.70;;;2.97;;
40591;SDS011;26301;42.832;23.918;2022-10-24T08:33:45;8.88;;;3.10;;
40591;SDS011;26301;42.832;23.918;2022-10-24T08:36:16;9.52;;;3.20;;
40591;SDS011;26301;42.832;23.918;2022-10-24T08:38:46;8.35;;;3.10;;
40591;SDS011;26301;42.832;23.918;2022-10-24T08:41:14;10.48;;;3.70;;
40591;SDS011;26301;42.832;23.918;2022-10-24T08:43:54;13.05;;;3.25;;
40591;SDS011;26301;42.832;23.918;2022-10-24T08:51:59;11.25;;;3.70;;
40591;SDS011;26301;42.832;23.918;2022-10-24T08:54:30;11.93;;;3.47;;
40591;SDS011;26301;42.832;23.918;2022-10-24T08:57:03;8.07;;;2.97;;
40591;SDS011;26301;42.832;23.918;2022-10-24T08:59:31;11.48;;;3.05;;
40591;SDS011;26301;42.832;23.918;2022-10-24T09:02:14;13.50;;;3.45;;
40591;SDS011;26301;42.832;23.918;2022-10-24T09:07:55;9.55;;;3.30;;
40591;SDS011;26301;42.832;23.918;2022-10-24T09:13:21;11.63;;;3.30;;
40591;SDS011;26301;42.832;23.918;2022-10-24T09:15:48;10.88;;;4.28;;
40591;SDS011;26301;42.832;23.918;2022-10-24T09:18:21;11.20;;;3.72;;
40591;SDS011;26301;42.832;23.918;2022-10-24T09:20:58;17.48;;;3.92;;
40591;SDS011;26301;42.832;23.918;2022-10-24T09:23:25;13.07;;;4.10;;
40591;SDS011;26301;42.832;23.918;2022-10-24T09:25:52;11.98;;;3.35;;
40591;SDS011;26301;42.832;23.918;2022-10-24T09:28:21;9.63;;;3.65;;
40591;SDS011;26301;42.832;23.918;2022-10-24T09:30:47;9.48;;;3.15;;
40591;SDS011;26301;42.832;23.918;2022-10-24T09:35:50;10.07;;;3.10;;
40591;SDS011;26301;42.832;23.918;2022-10-24T09:38:36;14.27;;;3.30;;
40591;SDS011;26301;42.832;23.918;2022-10-24T09:43:51;7.40;;;3.40;;
40591;SDS011;26301;42.832;23.918;2022-10-24T09:46:25;11.13;;;3.65;;
40591;SDS011;26301;42.832;23.918;2022-10-24T09:49:16;9.48;;;3.45;;
40591;SDS011;26301;42.832;23.918;2022-10-24T09:51:50;16.23;;;3.80;;
40591;SDS011;26301;42.832;23.918;2022-10-24T09:54:27;13.25;;;3.45;;
40591;SDS011;26301;42.832;23.918;2022-10-24T09:59:29;8.30;;;3.28;;
40591;SDS011;26301;42.832;23.918;2022-10-24T10:04:39;14.35;;;3.70;;
40591;SDS011;26301;42.832;23.918;2022-10-24T10:07:39;13.18;;;3.33;;
40591;SDS011;26301;42.832;23.918;2022-10-24T10:13:14;9.73;;;2.92;;
40591;SDS011;26301;42.832;23.918;2022-10-24T10:15:48;12.60;;;2.72;;
40591;SDS011;26301;42.832;23.918;2022-10-24T10:20:46;11.32;;;3.22;;
40591;SDS011;26301;42.832;23.918;2022-10-24T10:23:25;20.63;;;3.75;;
40591;SDS011;26301;42.832;23.918;2022-10-24T10:26:05;10.73;;;3.30;;
40591;SDS011;26301;42.832;23.918;2022-10-24T10:28:39;12.93;;;3.00;;
40591;SDS011;26301;42.832;23.918;2022-10-24T10:31:18;12.80;;;2.90;;
40591;SDS011;26301;42.832;23.918;2022-10-24T10:34:10;14.10;;;3.30;;
40591;SDS011;26301;42.832;23.918;2022-10-24T10:36:49;17.38;;;3.47;;
40591;SDS011;26301;42.832;23.918;2022-10-24T10:41:59;18.05;;;3.67;;
40591;SDS011;26301;42.832;23.918;2022-10-24T10:53:03;19.20;;;4.07;;
40591;SDS011;26301;42.832;23.918;2022-10-24T10:59:02;11.77;;;3.08;;
40591;SDS011;26301;42.832;23.918;2022-10-24T11:07:47;13.38;;;3.03;;
40591;SDS011;26301;42.832;23.918;2022-10-24T11:10:39;10.32;;;2.90;;
40591;SDS011;26301;42.832;23.918;2022-10-24T11:13:13;11.00;;;3.22;;
40591;SDS011;26301;42.832;23.918;2022-10-24T11:15:45;11.88;;;3.40;;
40591;SDS011;26301;42.832;23.918;2022-10-24T11:18:22;13.05;;;3.22;;
40591;SDS011;26301;42.832;23.918;2022-10-24T11:23:43;16.98;;;3.60;;
40591;SDS011;26301;42.832;23.918;2022-10-24T11:32:04;12.23;;;3.92;;
40591;SDS011;26301;42.832;23.918;2022-10-24T11:34:52;13.07;;;3.67;;
40591;SDS011;26301;42.832;23.918;2022-10-24T11:37:26;12.07;;;3.15;;
40591;SDS011;26301;42.832;23.918;2022-10-24T11:39:58;13.82;;;3.67;;
40591;SDS011;26301;42.832;23.918;2022-10-24T11:45:26;16.88;;;3.50;;
40591;SDS011;26301;42.832;23.918;2022-10-24T11:48:11;17.90;;;3.70;;
40591;SDS011;26301;42.832;23.918;2022-10-24T11:56:03;13.82;;;4.40;;
40591;SDS011;26301;42.832;23.918;2022-10-24T11:58:48;12.77;;;2.83;;
40591;SDS011;26301;42.832;23.918;2022-10-24T12:15:32;11.50;;;3.67;;
40591;SDS011;26301;42.832;23.918;2022-10-24T12:20:55;14.18;;;3.85;;
40591;SDS011;26301;42.832;23.918;2022-10-24T12:23:26;14.57;;;3.78;;
40591;SDS011;26301;42.832;23.918;2022-10-24T12:26:02;15.45;;;3.75;;
40591;SDS011;26301;42.832;23.918;2022-10-24T12:28:52;16.77;;;3.80;;
40591;SDS011;26301;42.832;23.918;2022-10-24T12:31:19;16.20;;;3.45;;
40591;SDS011;26301;42.832;23.918;2022-10-24T12:39:55;14.43;;;3.80;;
40591;SDS011;26301;42.832;23.918;2022-10-24T12:58:02;13.05;;;3.65;;
40591;SDS011;26301;42.832;23.918;2022-10-24T13:00:51;13.38;;;3.25;;
40591;SDS011;26301;42.832;23.918;2022-10-24T13:09:53;12.15;;;2.88;;
40591;SDS011;26301;42.832;23.918;2022-10-24T13:15:20;15.30;;;3.25;;
40591;SDS011;26301;42.832;23.918;2022-10-24T13:20:41;12.93;;;2.80;;
40591;SDS011;26301;42.832;23.918;2022-10-24T13:23:26;16.98;;;3.30;;
40591;SDS011;26301;42.832;23.918;2022-10-24T13:25:54;12.88;;;4.00;;
40591;SDS011;26301;42.832;23.918;2022-10-24T13:30:50;14.27;;;2.80;;
40591;SDS011;26301;42.832;23.918;2022-10-24T13:33:44;15.50;;;3.72;;
40591;SDS011;26301;42.832;23.918;2022-10-24T13:39:03;12.73;;;2.97;;
40591;SDS011;26301;42.832;23.918;2022-10-24T13:41:33;14.80;;;3.78;;
40591;SDS011;26301;42.832;23.918;2022-10-24T13:44:05;18.60;;;3.42;;
40591;SDS011;26301;42.832;23.918;2022-10-24T13:47:12;13.07;;;3.78;;
40591;SDS011;26301;42.832;23.918;2022-10-24T13:52:20;10.60;;;3.20;;
40591;SDS011;26301;42.832;23.918;2022-10-24T13:54:53;12.80;;;3.70;;
40591;SDS011;26301;42.832;23.918;2022-10-24T13:57:26;15.70;;;3.75;;
40591;SDS011;26301;42.832;23.918;2022-10-24T13:59:57;16.77;;;4.05;;
40591;SDS011;26301;42.832;23.918;2022-10-24T14:02:27;16.45;;;3.65;;
40591;SDS011;26301;42.832;23.918;2022-10-24T14:04:55;15.48;;;3.17;;
40591;SDS011;26301;42.832;23.918;2022-10-24T14:07:24;15.00;;;3.13;;
40591;SDS011;26301;42.832;23.918;2022-10-24T14:09:54;14.32;;;4.15;;
40591;SDS011;26301;42.832;23.918;2022-10-24T14:12:27;13.80;;;3.35;;
40591;SDS011;26301;42.832;23.918;2022-10-24T14:14:56;8.13;;;3.00;;
40591;SDS011;26301;42.832;23.918;2022-10-24T14:17:27;13.70;;;3.03;;
40591;SDS011;26301;42.832;23.918;2022-10-24T14:19:59;14.18;;;3.95;;
40591;SDS011;26301;42.832;23.918;2022-10-24T14:22:45;10.40;;;3.38;;
40591;SDS011;26301;42.832;23.918;2022-10-24T14:25:28;16.10;;;3.28;;
40591;SDS011;26301;42.832;23.918;2022-10-24T14:28:07;13.80;;;3.28;;
40591;SDS011;26301;42.832;23.918;2022-10-24T14:30:38;8.50;;;3.58;;
40591;SDS011;26301;42.832;23.918;2022-10-24T14:33:05;12.98;;;3.60;;
40591;SDS011;26301;42.832;23.918;2022-10-24T14:35:41;12.60;;;3.28;;
40591;SDS011;26301;42.832;23.918;2022-10-24T14:38:09;10.63;;;3.30;;
40591;SDS011;26301;42.832;23.918;2022-10-24T14:40:40;11.25;;;3.00;;
40591;SDS011;26301;42.832;23.918;2022-10-24T14:48:33;15.98;;;3.75;;
40591;SDS011;26301;42.832;23.918;2022-10-24T14:51:03;13.85;;;3.58;;
40591;SDS011;26301;42.832;23.918;2022-10-24T14:53:50;14.55;;;3.45;;
40591;SDS011;26301;42.832;23.918;2022-10-24T14:58:55;11.15;;;3.45;;
40591;SDS011;26301;42.832;23.918;2022-10-24T15:01:22;14.10;;;4.10;;
40591;SDS011;26301;42.832;23.918;2022-10-24T15:03:59;10.70;;;3.40;;
40591;SDS011;26301;42.832;23.918;2022-10-24T15:06:27;12.30;;;3.40;;
40591;SDS011;26301;42.832;23.918;2022-10-24T15:09:05;10.75;;;3.45;;
40591;SDS011;26301;42.832;23.918;2022-10-24T15:11:41;10.77;;;3.15;;
40591;SDS011;26301;42.832;23.918;2022-10-24T15:20:04;18.65;;;3.75;;
40591;SDS011;26301;42.832;23.918;2022-10-24T15:22:34;18.77;;;3.72;;
40591;SDS011;26301;42.832;23.918;2022-10-24T15:25:05;12.38;;;2.92;;
40591;SDS011;26301;42.832;23.918;2022-10-24T15:27:43;14.13;;;3.88;;
40591;SDS011;26301;42.832;23.918;2022-10-24T15:30:16;10.35;;;4.22;;
40591;SDS011;26301;42.832;23.918;2022-10-24T15:32:44;10.70;;;3.75;;
40591;SDS011;26301;42.832;23.918;2022-10-24T15:35:12;12.70;;;4.13;;
40591;SDS011;26301;42.832;23.918;2022-10-24T15:37:38;9.88;;;3.92;;
40591;SDS011;26301;42.832;23.918;2022-10-24T15:40:06;11.70;;;3.85;;
40591;SDS011;26301;42.832;23.918;2022-10-24T15:42:40;9.07;;;3.97;;
40591;SDS011;26301;42.832;23.918;2022-10-24T15:45:15;12.43;;;2.90;;
40591;SDS011;26301;42.832;23.918;2022-10-24T15:47:41;10.55;;;3.60;;
40591;SDS011;26301;42.832;23.918;2022-10-24T15:50:11;12.98;;;4.88;;
40591;SDS011;26301;42.832;23.918;2022-10-24T15:52:38;15.63;;;4.45;;
40591;SDS011;26301;42.832;23.918;2022-10-24T15:55:04;20.05;;;4.68;;
40591;SDS011;26301;42.832;23.918;2022-10-24T15:57:30;15.38;;;4.13;;
40591;SDS011;26301;42.832;23.918;2022-10-24T15:59:55;10.57;;;4.70;;
40591;SDS011;26301;42.832;23.918;2022-10-24T16:02:22;20.08;;;5.70;;
40591;SDS011;26301;42.832;23.918;2022-10-24T16:04:48;20.05;;;5.20;;
40591;SDS011;26301;42.832;23.918;2022-10-24T16:07:15;19.05;;;5.45;;
40591;SDS011;26301;42.832;23.918;2022-10-24T16:09:41;17.88;;;5.50;;
40591;SDS011;26301;42.832;23.918;2022-10-24T16:12:06;13.30;;;4.72;;
40591;SDS011;26301;42.832;23.918;2022-10-24T16:14:35;11.63;;;4.05;;
40591;SDS011;26301;42.832;23.918;2022-10-24T16:17:01;14.85;;;4.82;;
40591;SDS011;26301;42.832;23.918;2022-10-24T16:19:26;15.93;;;4.55;;
40591;SDS011;26301;42.832;23.918;2022-10-24T16:21:53;16.30;;;4.72;;
40591;SDS011;26301;42.832;23.918;2022-10-24T16:24:23;12.52;;;4.97;;
40591;SDS011;26301;42.832;23.918;2022-10-24T16:26:49;18.67;;;5.43;;
40591;SDS011;26301;42.832;23.918;2022-10-24T16:29:16;19.73;;;5.95;;
40591;SDS011;26301;42.832;23.918;2022-10-24T16:31:41;13.75;;;4.90;;
40591;SDS011;26301;42.832;23.918;2022-10-24T16:34:09;15.80;;;5.03;;
40591;SDS011;26301;42.832;23.918;2022-10-24T16:36:35;14.43;;;4.80;;
40591;SDS011;26301;42.832;23.918;2022-10-24T16:39:01;16.83;;;5.72;;
40591;SDS011;26301;42.832;23.918;2022-10-24T16:41:26;10.68;;;5.18;;
40591;SDS011;26301;42.832;23.918;2022-10-24T16:43:53;17.33;;;5.03;;
40591;SDS011;26301;42.832;23.918;2022-10-24T16:46:20;15.15;;;5.10;;
40591;SDS011;26301;42.832;23.918;2022-10-24T16:48:46;16.38;;;4.43;;
40591;SDS011;26301;42.832;23.918;2022-10-24T16:51:17;12.85;;;4.32;;
40591;SDS011;26301;42.832;23.918;2022-10-24T16:53:51;11.55;;;3.83;;
40591;SDS011;26301;42.832;23.918;2022-10-24T16:56:17;13.95;;;4.25;;
40591;SDS011;26301;42.832;23.918;2022-10-24T16:58:43;11.90;;;3.72;;
40591;SDS011;26301;42.832;23.918;2022-10-24T17:01:11;11.05;;;4.65;;
40591;SDS011;26301;42.832;23.918;2022-10-24T17:03:38;13.55;;;4.15;;
40591;SDS011;26301;42.832;23.918;2022-10-24T17:06:05;17.23;;;4.40;;
40591;SDS011;26301;42.832;23.918;2022-10-24T17:08:31;13.90;;;4.47;;
40591;SDS011;26301;42.832;23.918;2022-10-24T17:10:57;16.15;;;4.85;;
40591;SDS011;26301;42.832;23.918;2022-10-24T17:13:24;16.67;;;5.55;;
40591;SDS011;26301;42.832;23.918;2022-10-24T17:15:52;19.67;;;5.22;;
40591;SDS011;26301;42.832;23.918;2022-10-24T17:18:18;11.32;;;4.35;;
40591;SDS011;26301;42.832;23.918;2022-10-24T17:20:47;19.15;;;4.75;;
40591;SDS011;26301;42.832;23.918;2022-10-24T17:23:16;13.25;;;4.68;;
40591;SDS011;26301;42.832;23.918;2022-10-24T17:25:45;13.38;;;5.35;;
40591;SDS011;26301;42.832;23.918;2022-10-24T17:28:11;16.45;;;5.15;;
40591;SDS011;26301;42.832;23.918;2022-10-24T17:30:38;15.13;;;5.03;;